Time;durP1;ratioP1;P1;durP2;ratioP2;P2;SDS_P1;SDS_P2;PMS_P1;PMS_P2;Temp;Humidity;BMP_temperature;BMP_pressure;BME280_temperature;BME280_humidity;BME280_pressure;Samples;Min_cycle;Max_cycle;Signal;HPM_P1;HPM_P2
2023/05/04 00:01:42;;;;;;;5.68;3.13;;;;;;;11.05;50.61;99993.38;4994578;28;20065;-73
2023/05/04 00:04:09;;;;;;;8.98;3.00;;;;;;;11.02;50.16;99988.38;4963177;28;20076;-74
2023/05/04 00:06:35;;;;;;;7.28;2.92;;;;;;;11.07;49.64;99996.72;4997055;28;20150;-73
2023/05/04 00:09:03;;;;;;;6.22;2.72;;;;;;;11.05;49.57;100001.34;4997135;28;20038;-73
2023/05/04 00:11:29;;;;;;;13.02;3.03;;;;;;;11.01;50.21;99994.69;5013453;28;20064;-73
2023/05/04 00:13:56;;;;;;;8.60;3.00;;;;;;;10.95;49.26;99992.63;4965488;28;20369;-73
2023/05/04 00:16:22;;;;;;;7.63;2.90;;;;;;;10.95;49.27;99995.28;5013080;28;20060;-73
2023/05/04 00:18:49;;;;;;;5.25;2.90;;;;;;;10.93;49.73;99997.25;5000885;28;20055;-73
2023/05/04 00:21:15;;;;;;;6.13;3.13;;;;;;;10.88;49.87;100000.38;5000011;28;20049;-73
2023/05/04 00:23:41;;;;;;;6.00;3.40;;;;;;;10.83;50.37;99993.81;4993522;28;20587;-73
2023/05/04 00:26:07;;;;;;;7.28;3.00;;;;;;;10.78;50.46;99996.94;4977799;28;20089;-73
2023/05/04 00:28:34;;;;;;;6.68;3.00;;;;;;;10.78;50.34;100004.09;5009585;28;20489;-73
2023/05/04 00:31:01;;;;;;;6.50;3.13;;;;;;;10.92;50.78;100004.38;5000375;28;20045;-74
2023/05/04 00:33:28;;;;;;;8.00;2.92;;;;;;;10.73;50.81;100004.50;5000169;28;20114;-73
2023/05/04 00:35:54;;;;;;;7.35;2.85;;;;;;;10.72;51.05;100008.16;4983197;28;20045;-74
2023/05/04 00:38:21;;;;;;;13.82;2.92;;;;;;;10.69;51.09;100002.31;5015302;28;20048;-73
2023/05/04 00:40:48;;;;;;;8.07;3.40;;;;;;;10.79;51.74;99992.47;5015101;28;20102;-72
2023/05/04 00:43:14;;;;;;;8.77;3.20;;;;;;;10.64;51.69;100009.91;5015309;28;20623;-72
2023/05/04 00:45:40;;;;;;;7.78;3.10;;;;;;;10.61;51.80;100007.56;5033159;28;20392;-72
2023/05/04 00:48:07;;;;;;;8.73;3.20;;;;;;;10.81;52.42;100003.78;5016596;28;20041;-73
2023/05/04 00:50:34;;;;;;;5.82;3.10;;;;;;;10.56;51.68;100005.34;4993242;28;20065;-72
2023/05/04 00:53:04;;;;;;;5.22;3.10;;;;;;;10.77;52.25;100013.03;5009879;28;20068;-73
2023/05/04 00:55:30;;;;;;;6.43;3.25;;;;;;;10.62;51.78;100011.88;4967135;28;20214;-73
2023/05/04 00:57:57;;;;;;;8.75;3.63;;;;;;;10.34;52.03;100003.09;4997161;28;20057;-73
2023/05/04 01:00:23;;;;;;;6.18;3.15;;;;;;;10.35;51.90;100006.59;4964744;28;20504;-73
2023/05/04 01:02:50;;;;;;;5.28;3.00;;;;;;;10.35;51.80;100003.94;4981170;28;20060;-73
2023/05/04 01:05:16;;;;;;;8.85;2.90;;;;;;;10.31;52.00;100010.50;4964666;28;20066;-73
2023/05/04 01:07:58;;;;;;;6.35;3.00;;;;;;;10.68;51.74;100012.13;4997281;28;20195;-72
2023/05/04 01:10:44;;;;;;;11.07;2.90;;;;;;;10.29;51.40;100025.75;4964999;28;20046;-73
2023/05/04 01:13:13;;;;;;;6.85;3.15;;;;;;;10.53;51.58;100018.09;4964781;28;20045;-73
2023/05/04 01:15:41;;;;;;;5.40;2.90;;;;;;;10.33;51.87;100022.66;4980959;28;20477;-73
2023/05/04 01:18:08;;;;;;;4.38;2.90;;;;;;;10.23;52.19;100019.19;4964671;28;20064;-73
2023/05/04 01:20:37;;;;;;;5.90;3.53;;;;;;;10.33;52.79;100029.78;4969364;28;20050;-73
2023/05/04 01:23:04;;;;;;;6.35;3.00;;;;;;;10.22;52.37;100022.84;5036332;28;20565;-73
2023/05/04 01:25:33;;;;;;;8.98;3.05;;;;;;;10.41;52.25;100030.72;5003672;28;20060;-73
2023/05/04 01:28:07;;;;;;;7.20;3.03;;;;;;;10.44;52.53;100024.28;5003555;28;20103;-73
2023/05/04 01:30:43;;;;;;;8.98;3.33;;;;;;;10.30;53.09;100025.63;5036402;28;20148;-73
2023/05/04 01:33:10;;;;;;;6.03;3.15;;;;;;;10.08;53.63;100029.47;5003504;28;20047;-73
2023/05/04 01:35:36;;;;;;;9.05;3.05;;;;;;;10.09;53.60;100028.47;5032330;28;20053;-73
2023/05/04 01:38:02;;;;;;;10.32;3.17;;;;;;;10.09;52.99;100030.28;5024045;28;20044;-74
2023/05/04 01:40:29;;;;;;;11.75;3.33;;;;;;;10.15;52.92;100035.00;5040535;28;20041;-73
2023/05/04 01:42:55;;;;;;;6.38;3.33;;;;;;;10.09;52.57;100040.91;5024010;28;20052;-72
2023/05/04 01:45:21;;;;;;;8.05;3.10;;;;;;;10.08;52.87;100033.94;5023639;28;20048;-73
2023/05/04 01:47:48;;;;;;;5.10;3.08;;;;;;;10.06;53.02;100036.72;5024152;28;20048;-73
2023/05/04 01:50:14;;;;;;;5.35;2.80;;;;;;;10.05;52.59;100044.81;5023737;28;20040;-72
2023/05/04 01:52:40;;;;;;;9.48;3.00;;;;;;;10.04;51.99;100041.31;5040228;28;20032;-73
2023/05/04 01:55:06;;;;;;;8.48;3.13;;;;;;;10.08;52.00;100039.25;5039678;28;20058;-74
2023/05/04 01:57:32;;;;;;;5.90;3.13;;;;;;;10.04;52.13;100041.31;5039953;28;20505;-73
2023/05/04 01:59:58;;;;;;;3.92;2.70;;;;;;;10.02;52.11;100051.22;5023655;28;20450;-73
2023/05/04 02:02:24;;;;;;;4.95;3.00;;;;;;;10.03;51.78;100058.22;5018930;28;20076;-73
2023/05/04 02:04:50;;;;;;;8.52;2.90;;;;;;;10.02;52.00;100045.91;5018725;28;20155;-73
2023/05/04 02:07:17;;;;;;;5.90;3.25;;;;;;;10.05;51.99;100050.13;5018731;28;20060;-73
2023/05/04 02:09:44;;;;;;;10.23;3.08;;;;;;;10.04;51.85;100059.88;5035353;28;20055;-73
2023/05/04 02:12:10;;;;;;;7.97;3.17;;;;;;;10.03;52.42;100062.69;5002654;28;20160;-74
2023/05/04 02:14:36;;;;;;;8.32;3.30;;;;;;;10.04;52.34;100064.38;5002535;28;20467;-72
2023/05/04 02:17:03;;;;;;;4.85;3.10;;;;;;;10.04;51.64;100065.19;5002748;28;20053;-72
2023/05/04 02:19:29;;;;;;;4.78;2.65;;;;;;;10.02;51.72;100056.53;5018842;28;20453;-73
2023/05/04 02:21:55;;;;;;;9.43;2.88;;;;;;;10.08;51.50;100061.31;5018690;28;20060;-73
2023/05/04 02:24:21;;;;;;;6.10;2.88;;;;;;;10.11;51.57;100068.16;5018271;28;20060;-73
2023/05/04 02:26:47;;;;;;;6.60;3.13;;;;;;;10.14;51.47;100067.84;5018582;28;20041;-73
2023/05/04 02:29:13;;;;;;;5.47;2.90;;;;;;;10.14;51.09;100067.84;5002410;28;20068;-73
2023/05/04 02:31:40;;;;;;;8.88;3.22;;;;;;;10.15;51.00;100067.72;5018863;28;20041;-72
2023/05/04 02:34:06;;;;;;;9.32;3.25;;;;;;;10.18;51.21;100071.88;5051567;28;20052;-73
2023/05/04 02:36:33;;;;;;;7.53;2.95;;;;;;;10.16;50.95;100069.38;5023318;28;20079;-72
2023/05/04 02:38:59;;;;;;;5.45;2.72;;;;;;;10.23;51.13;100069.63;5022669;28;20131;-73
2023/05/04 02:41:27;;;;;;;8.18;3.30;;;;;;;10.27;50.97;100063.88;5038160;28;20044;-73
2023/05/04 02:43:52;;;;;;;7.50;3.60;;;;;;;10.24;51.06;100076.63;5021308;28;20053;-73
2023/05/04 02:46:20;;;;;;;8.80;3.50;;;;;;;10.53;51.25;100071.19;5021384;28;20041;-73
2023/05/04 02:48:46;;;;;;;6.30;2.92;;;;;;;10.25;50.89;100073.81;5007718;28;20054;-73
2023/05/04 02:51:12;;;;;;;7.70;3.53;;;;;;;10.30;51.12;100078.72;5008228;28;20149;-74
2023/05/04 02:53:37;;;;;;;8.43;3.45;;;;;;;10.33;50.93;100086.38;4991785;28;20058;-74
2023/05/04 02:56:04;;;;;;;6.00;3.33;;;;;;;10.40;51.04;100083.97;5008283;28;20062;-73
2023/05/04 02:58:30;;;;;;;9.32;3.10;;;;;;;10.40;50.83;100083.97;4958930;28;20097;-73
2023/05/04 03:00:57;;;;;;;6.00;2.83;;;;;;;10.69;50.54;100085.50;4991481;28;20516;-73
2023/05/04 03:03:23;;;;;;;9.07;3.13;;;;;;;10.46;49.93;100089.53;5007917;28;20093;-73
2023/05/04 03:05:51;;;;;;;6.90;3.67;;;;;;;10.68;49.95;100090.97;4991438;28;20144;-73
2023/05/04 03:08:17;;;;;;;6.00;3.05;;;;;;;10.58;49.56;100095.50;4991279;28;20089;-72
2023/05/04 03:10:43;;;;;;;4.97;3.40;;;;;;;10.62;49.13;100100.38;4954742;28;20042;-72
2023/05/04 03:13:09;;;;;;;8.00;2.67;;;;;;;10.72;48.83;100105.63;4955825;28;20046;-69
2023/05/04 03:15:37;;;;;;;5.22;2.85;;;;;;;10.76;49.57;100089.25;4972128;28;20153;-71
2023/05/04 03:18:03;;;;;;;8.25;3.72;;;;;;;10.83;48.39;100108.09;4971272;28;20050;-70
2023/05/04 03:20:30;;;;;;;7.97;3.63;;;;;;;10.91;48.63;100098.41;4985891;28;20135;-69
2023/05/04 03:22:59;;;;;;;5.72;2.83;;;;;;;11.19;48.54;100109.84;5021188;28;20048;-73
2023/05/04 03:25:29;;;;;;;5.28;2.90;;;;;;;10.98;48.11;100107.44;5010282;28;20053;-71
2023/05/04 03:27:58;;;;;;;7.40;4.00;;;;;;;11.13;48.39;100110.44;5010921;28;20150;-72
2023/05/04 03:30:25;;;;;;;6.05;4.13;;;;;;;11.14;49.10;100117.41;4978325;28;20064;-72
2023/05/04 03:32:54;;;;;;;6.65;3.35;;;;;;;11.24;48.72;100113.69;4993989;28;20046;-72
2023/05/04 03:35:20;;;;;;;8.68;3.17;;;;;;;11.30;47.85;100118.41;4994266;28;20042;-74
2023/05/04 03:37:47;;;;;;;7.63;3.90;;;;;;;11.50;47.70;100119.94;4982659;28;20045;-70
2023/05/04 03:40:38;;;;;;;6.25;3.83;;;;;;;11.95;47.33;100119.84;5018065;28;20032;-74
2023/05/04 03:43:04;;;;;;;5.00;2.85;;;;;;;11.51;47.07;100126.94;4999563;28;20556;-72
2023/05/04 03:45:33;;;;;;;6.50;3.13;;;;;;;11.52;46.65;100120.63;5015646;28;20134;-69
2023/05/04 03:48:04;;;;;;;5.38;3.10;;;;;;;11.86;47.04;100115.47;5015756;28;21162;-70
2023/05/04 03:50:30;;;;;;;;;;;;;;;12.14;46.17;100132.97;5016186;28;20045;-70
2023/05/04 03:52:56;;;;;;;4.60;2.67;;;;;;;11.78;46.31;100136.69;5015378;28;19986;-72
2023/05/04 03:55:24;;;;;;;4.95;3.00;;;;;;;11.76;46.26;100136.03;5015697;28;20043;-70
2023/05/04 03:57:50;;;;;;;6.60;2.90;;;;;;;11.95;45.51;100148.31;5036689;28;20044;-70
2023/05/04 04:00:18;;;;;;;5.55;2.95;;;;;;;12.00;45.92;100146.84;5055730;28;20047;-72
2023/05/04 04:02:52;;;;;;;5.45;3.13;;;;;;;11.97;46.74;100141.84;5043359;28;20127;-71
2023/05/04 04:05:19;;;;;;;10.13;3.42;;;;;;;12.03;46.16;100135.91;5013094;28;20152;-73
2023/05/04 04:07:48;;;;;;;8.32;3.17;;;;;;;12.16;45.69;100143.47;4977576;28;20046;-72
2023/05/04 04:10:18;;;;;;;7.63;2.75;;;;;;;12.32;45.87;100156.88;4969563;28;20061;-73
2023/05/04 04:12:46;;;;;;;9.10;3.22;;;;;;;12.25;45.81;100151.38;4935988;29;20051;-73
2023/05/04 04:15:12;;;;;;;4.18;2.67;;;;;;;12.29;44.70;100158.06;4917103;29;20066;-72
2023/05/04 04:17:38;;;;;;;5.05;2.97;;;;;;;12.33;45.13;100156.72;4920466;29;20062;-73
2023/05/04 04:20:07;;;;;;;10.18;2.53;;;;;;;12.56;44.20;100163.19;4920189;29;20149;-72
2023/05/04 04:22:36;;;;;;;5.30;2.40;;;;;;;12.74;43.34;100172.00;4920014;29;20497;-72
2023/05/04 04:25:02;;;;;;;4.78;2.70;;;;;;;12.66;43.43;100165.75;4904173;29;20426;-73
2023/05/04 04:27:29;;;;;;;4.00;2.20;;;;;;;12.72;42.69;100173.13;4920286;29;20498;-72
2023/05/04 04:29:56;;;;;;;6.72;2.50;;;;;;;12.87;42.30;100166.22;4919215;29;20063;-72
2023/05/04 04:32:23;;;;;;;3.20;2.42;;;;;;;12.89;41.18;100164.22;4920375;29;20074;-72
2023/05/04 04:34:48;;;;;;;15.30;7.78;;;;;;;13.00;40.76;100172.81;4936635;29;20091;-72
2023/05/04 04:37:14;;;;;;;5.50;3.28;;;;;;;13.01;40.46;100168.28;4970760;28;20062;-72
2023/05/04 04:39:41;;;;;;;5.95;2.60;;;;;;;13.04;40.26;100166.16;5011510;28;20148;-72
2023/05/04 04:42:07;;;;;;;11.15;3.20;;;;;;;13.24;39.64;100174.72;4998010;28;20491;-72
2023/05/04 04:44:33;;;;;;;11.02;3.67;;;;;;;13.27;39.70;100175.22;5010955;28;20563;-71
2023/05/04 04:46:59;;;;;;;6.40;2.70;;;;;;;13.35;39.21;100171.75;5000942;28;20053;-72
2023/05/04 04:49:28;;;;;;;4.43;2.03;;;;;;;13.45;38.28;100170.59;4968583;28;20061;-72
2023/05/04 04:51:54;;;;;;;8.60;1.92;;;;;;;13.49;37.77;100171.13;5017181;28;20073;-71
2023/05/04 04:54:20;;;;;;;10.02;2.47;;;;;;;13.58;37.59;100180.81;4984197;28;20136;-71
2023/05/04 04:56:45;;;;;;;5.88;2.05;;;;;;;13.64;37.45;100166.00;4982573;28;20132;-71
2023/05/04 04:59:12;;;;;;;6.05;2.55;;;;;;;13.81;37.23;100170.34;4998802;28;20494;-71
2023/05/04 05:01:40;;;;;;;7.13;2.85;;;;;;;13.97;37.08;100176.53;5032556;28;20048;-70
2023/05/04 05:04:07;;;;;;;7.85;2.20;;;;;;;14.00;36.87;100178.03;5022808;28;20064;-71
2023/05/04 05:06:33;;;;;;;5.50;2.00;;;;;;;14.07;36.64;100179.03;5023167;28;20044;-71
2023/05/04 05:08:59;;;;;;;3.90;1.70;;;;;;;14.11;35.83;100177.69;5023368;28;20110;-70
2023/05/04 05:11:25;;;;;;;4.85;1.58;;;;;;;14.43;35.56;100188.38;5023578;28;20037;-70
2023/05/04 05:14:00;;;;;;;4.43;1.52;;;;;;;14.70;34.79;100183.47;5040071;28;20044;-70
2023/05/04 05:16:26;;;;;;;2.42;1.45;;;;;;;14.42;34.93;100184.88;5058259;28;20402;-71
2023/05/04 05:19:10;;;;;;;9.32;2.00;;;;;;;14.50;35.11;100184.06;5060737;28;20043;-70
2023/05/04 05:21:53;;;;;;;5.38;1.50;;;;;;;14.83;35.36;100177.59;5094356;28;20131;-70
2023/05/04 05:24:19;;;;;;;6.57;1.85;;;;;;;14.68;34.98;100182.00;5061905;28;20155;-70
2023/05/04 05:26:45;;;;;;;6.20;1.73;;;;;;;14.78;34.64;100185.31;5044321;28;20131;-71
2023/05/04 05:29:11;;;;;;;2.33;1.10;;;;;;;14.81;33.38;100188.47;5060892;28;20040;-70
2023/05/04 05:31:36;;;;;;;2.28;1.13;;;;;;;14.89;32.45;100187.59;5060596;28;20055;-71
2023/05/04 05:34:02;;;;;;;2.05;1.35;;;;;;;14.91;32.14;100186.41;5060434;28;20035;-70
2023/05/04 05:36:29;;;;;;;2.50;1.25;;;;;;;15.06;31.79;100183.88;5060686;28;20043;-70
2023/05/04 05:38:54;;;;;;;17.38;2.00;;;;;;;14.97;32.13;100188.44;5094015;28;20040;-70
2023/05/04 05:41:21;;;;;;;5.28;1.42;;;;;;;15.04;32.34;100191.22;5059443;28;20050;-70
2023/05/04 05:43:47;;;;;;;3.38;1.30;;;;;;;15.08;32.37;100190.72;5043883;28;20051;-71
2023/05/04 05:46:13;;;;;;;6.07;1.67;;;;;;;15.21;32.67;100188.31;5077269;28;20080;-70
2023/05/04 05:48:40;;;;;;;7.30;1.33;;;;;;;15.26;31.94;100187.78;5060209;28;20089;-70
2023/05/04 05:51:06;;;;;;;5.75;1.33;;;;;;;15.33;30.97;100187.94;5093996;28;20047;-70
2023/05/04 05:53:31;;;;;;;3.10;0.93;;;;;;;15.39;30.37;100187.28;5076809;28;20489;-70
2023/05/04 05:55:58;;;;;;;2.95;1.20;;;;;;;15.43;29.90;100188.56;5077066;28;20048;-71
2023/05/04 05:58:23;;;;;;;1.45;1.15;;;;;;;15.46;30.16;100191.75;5060132;28;20067;-70
2023/05/04 06:00:49;;;;;;;2.95;1.50;;;;;;;15.46;30.40;100178.34;5060095;28;20087;-70
2023/05/04 06:03:15;;;;;;;6.90;1.60;;;;;;;15.53;30.23;100187.34;5043513;28;20051;-70
2023/05/04 06:05:42;;;;;;;4.68;1.42;;;;;;;15.60;30.51;100182.97;5060308;28;20182;-70
2023/05/04 06:08:08;;;;;;;5.75;2.35;;;;;;;15.54;29.84;100183.69;5076817;28;20364;-71
2023/05/04 06:10:34;;;;;;;1.60;1.20;;;;;;;15.75;29.89;100183.03;5059772;28;20040;-70
2023/05/04 06:13:00;;;;;;;1.77;1.30;;;;;;;15.71;30.11;100192.44;5043233;28;20039;-70
2023/05/04 06:15:25;;;;;;;2.03;1.35;;;;;;;15.78;29.58;100194.22;5059831;28;20519;-70
2023/05/04 06:17:51;;;;;;;2.75;1.30;;;;;;;15.86;29.59;100186.13;5043235;28;20070;-70
2023/05/04 06:20:17;;;;;;;4.32;1.30;;;;;;;15.99;29.57;100172.97;5076311;28;20481;-71
2023/05/04 06:22:44;;;;;;;1.70;1.35;;;;;;;16.09;29.69;100170.03;5043181;28;20051;-70
2023/05/04 06:25:10;;;;;;;3.83;1.50;;;;;;;16.28;29.13;100174.91;5043385;28;20062;-71
2023/05/04 06:27:36;;;;;;;5.63;1.48;;;;;;;16.43;29.11;100176.63;5059566;28;20130;-70
2023/05/04 06:30:02;;;;;;;3.05;1.40;;;;;;;16.64;29.04;100176.75;5076226;28;20036;-70
2023/05/04 06:32:31;;;;;;;4.60;1.40;;;;;;;16.81;28.35;100169.34;5060101;28;20047;-71
2023/05/04 06:34:58;;;;;;;2.80;1.50;;;;;;;17.05;27.93;100162.88;5059607;28;20044;-71
2023/05/04 06:37:25;;;;;;;4.28;1.60;;;;;;;17.06;27.60;100162.69;5059618;28;20547;-71
2023/05/04 06:39:51;;;;;;;2.30;1.30;;;;;;;17.38;27.74;100167.63;5042904;28;20460;-70
2023/05/04 06:42:17;;;;;;;2.38;2.10;;;;;;;17.32;26.99;100170.22;5076069;28;20056;-71
2023/05/04 06:44:47;;;;;;;5.97;2.25;;;;;;;17.69;26.74;100165.56;5043970;28;20489;-70
2023/05/04 06:47:14;;;;;;;5.00;1.58;;;;;;;17.79;26.89;100166.06;5042705;28;20039;-70
2023/05/04 06:49:40;;;;;;;2.33;1.80;;;;;;;18.03;26.73;100167.53;5075863;28;20043;-71
2023/05/04 06:52:06;;;;;;;2.08;1.60;;;;;;;18.23;26.06;100163.16;5042079;28;20100;-70
2023/05/04 06:54:32;;;;;;;4.65;1.75;;;;;;;18.59;25.70;100171.13;5058761;28;20551;-70
2023/05/04 06:56:58;;;;;;;4.30;1.67;;;;;;;18.66;25.94;100164.75;5059091;28;20358;-70
2023/05/04 06:59:24;;;;;;;4.40;1.52;;;;;;;18.87;24.95;100161.97;5058957;28;20051;-71
2023/05/04 07:01:50;;;;;;;5.07;2.00;;;;;;;19.12;24.52;100159.63;5075565;28;20109;-71
2023/05/04 07:04:20;;;;;;;7.22;1.60;;;;;;;19.36;23.92;100157.28;5042865;28;20501;-70
2023/05/04 07:06:46;;;;;;;4.35;1.52;;;;;;;19.71;23.81;100149.94;5076131;28;20048;-71
2023/05/04 07:09:12;;;;;;;2.85;1.60;;;;;;;20.41;22.86;100152.91;5075269;28;20371;-71
2023/05/04 07:11:38;;;;;;;4.93;1.60;;;;;;;21.33;22.77;100145.41;5058570;28;20040;-70
2023/05/04 07:14:04;;;;;;;7.22;1.40;;;;;;;22.07;21.14;100151.88;5042134;28;20051;-70
2023/05/04 07:16:31;;;;;;;8.43;1.88;;;;;;;23.60;19.83;100149.06;5058659;28;20347;-71
2023/05/04 07:18:57;;;;;;;3.08;1.65;;;;;;;25.70;17.70;100137.75;5042173;28;20478;-71
2023/05/04 07:21:23;;;;;;;6.15;1.33;;;;;;;28.45;15.49;100141.75;5041768;28;20131;-71
2023/05/04 07:23:50;;;;;;;5.30;1.20;;;;;;;30.91;13.49;100146.06;5058562;28;20051;-71
2023/05/04 07:26:17;;;;;;;6.75;1.50;;;;;;;32.38;11.82;100145.84;5058761;28;20562;-71
2023/05/04 07:28:43;;;;;;;4.30;1.30;;;;;;;33.70;10.95;100152.41;5058283;28;20462;-71
2023/05/04 07:31:11;;;;;;;7.30;1.33;;;;;;;35.02;10.03;100143.59;5058464;28;20051;-72
2023/05/04 07:33:38;;;;;;;2.45;1.00;;;;;;;35.95;9.03;100138.31;5074582;28;20124;-72
2023/05/04 07:36:04;;;;;;;1.85;1.20;;;;;;;36.29;8.65;100137.75;5058266;28;20100;-72
2023/05/04 07:38:30;;;;;;;1.45;1.00;;;;;;;37.34;8.14;100131.31;5058080;28;20432;-72
2023/05/04 07:40:56;;;;;;;2.60;1.20;;;;;;;37.94;7.42;100116.41;5091798;28;20104;-72
2023/05/04 07:43:22;;;;;;;5.00;1.05;;;;;;;37.81;7.17;100119.34;5058160;28;20051;-73
2023/05/04 07:45:49;;;;;;;4.95;1.00;;;;;;;35.49;8.29;100118.34;5074965;28;20092;-72
2023/05/04 07:48:16;;;;;;;2.38;1.20;;;;;;;32.67;10.05;100102.66;5041662;28;20098;-72
2023/05/04 07:50:42;;;;;;;5.03;1.50;;;;;;;30.35;11.35;100100.63;5058051;28;20509;-72
2023/05/04 07:53:08;;;;;;;2.63;1.40;;;;;;;30.25;11.47;100101.47;5041429;28;20093;-71
2023/05/04 07:55:34;;;;;;;2.67;1.40;;;;;;;31.73;10.23;100115.25;5057897;28;20044;-72
2023/05/04 07:58:00;;;;;;;4.10;1.50;;;;;;;33.95;9.21;100113.44;5058032;28;20141;-72
2023/05/04 08:00:26;;;;;;;6.38;1.30;;;;;;;34.44;8.77;100112.94;5041427;28;20044;-72
2023/05/04 08:02:52;;;;;;;2.53;1.05;;;;;;;33.31;9.46;100101.38;5058456;28;20040;-72
2023/05/04 08:05:18;;;;;;;8.20;3.13;;;;;;;32.48;9.88;100107.28;5074457;28;20056;-72
2023/05/04 08:07:44;;;;;;;3.72;1.33;;;;;;;33.51;9.25;100104.72;5041329;28;20585;-72
2023/05/04 08:10:10;;;;;;;4.80;1.23;;;;;;;35.08;8.25;100112.81;5057890;28;20382;-72
2023/05/04 08:12:39;;;;;;;2.85;1.40;;;;;;;36.74;7.29;100101.41;5041261;28;20044;-73
2023/05/04 08:15:06;;;;;;;3.67;1.75;;;;;;;38.51;6.41;100108.66;5057928;28;20048;-73
2023/05/04 08:17:33;;;;;;;8.02;1.45;;;;;;;40.27;5.63;100102.75;5057982;28;20047;-73
2023/05/04 08:20:00;;;;;;;3.47;1.20;;;;;;;41.37;5.09;100095.00;5057675;28;20067;-73
2023/05/04 08:22:26;;;;;;;1.90;1.02;;;;;;;42.29;4.64;100092.97;5058139;28;20044;-73
2023/05/04 08:24:52;;;;;;;1.85;1.20;;;;;;;42.99;4.14;100094.06;5041210;28;20040;-73
2023/05/04 08:27:18;;;;;;;6.55;1.15;;;;;;;43.68;4.04;100090.50;5057557;28;20393;-73
2023/05/04 08:29:45;;;;;;;4.07;1.13;;;;;;;44.39;4.00;100093.59;5057620;28;20419;-73
2023/05/04 08:32:12;;;;;;;1.92;1.00;;;;;;;44.22;3.96;100086.47;5057575;28;20051;-73
2023/05/04 08:34:38;;;;;;;4.70;1.20;;;;;;;44.17;3.90;100081.16;5057969;28;20131;-73
2023/05/04 08:37:03;;;;;;;8.93;1.30;;;;;;;42.89;4.23;100075.84;5040910;28;20139;-73
2023/05/04 08:39:30;;;;;;;2.88;1.05;;;;;;;42.74;4.29;100067.47;5041223;28;20084;-73
2023/05/04 08:41:56;;;;;;;4.75;1.20;;;;;;;43.89;3.83;100069.41;5074326;28;20040;-73
2023/05/04 08:44:22;;;;;;;6.95;1.48;;;;;;;45.02;3.58;100061.13;5041131;28;20516;-73
2023/05/04 08:46:52;;;;;;;7.28;1.38;;;;;;;46.36;2.95;100058.09;5057484;28;20172;-73
2023/05/04 08:49:22;;;;;;;6.68;1.48;;;;;;;47.34;2.53;100066.56;5074053;28;20048;-73
2023/05/04 08:51:51;;;;;;;3.30;1.10;;;;;;;45.07;2.93;100057.19;5041110;28;20040;-72
2023/05/04 08:54:18;;;;;;;4.85;1.10;;;;;;;44.63;3.29;100035.22;5057445;28;20047;-73
2023/05/04 08:56:46;;;;;;;4.13;1.00;;;;;;;44.70;3.50;100043.72;5057714;28;20044;-73
2023/05/04 08:59:20;;;;;;;2.55;1.20;;;;;;;43.77;3.38;100047.13;5091000;28;20389;-73
2023/05/04 09:01:50;;;;;;;2.08;1.00;;;;;;;41.48;4.29;100045.94;5074139;28;20238;-73
2023/05/04 09:04:17;;;;;;;4.20;1.40;;;;;;;39.72;4.72;100039.03;5074143;28;20044;-72
2023/05/04 09:06:43;;;;;;;6.53;1.50;;;;;;;38.62;5.38;100038.59;5040915;28;20076;-72
2023/05/04 09:09:09;;;;;;;2.40;1.10;;;;;;;38.95;5.47;100027.63;5040780;28;20223;-72
2023/05/04 09:11:35;;;;;;;4.93;1.20;;;;;;;40.61;4.58;100029.13;5057140;28;20454;-72
2023/05/04 09:14:01;;;;;;;2.50;1.30;;;;;;;42.08;3.87;100024.56;5057156;28;20143;-72
2023/05/04 09:16:37;;;;;;;9.70;1.50;;;;;;;43.05;3.40;100031.91;5042041;28;20132;-74
2023/05/04 09:19:16;;;;;;;4.57;1.20;;;;;;;42.93;3.71;100028.41;5044436;28;20044;-73
2023/05/04 09:21:43;;;;;;;3.88;1.10;;;;;;;43.01;3.46;100025.41;5044074;28;20039;-73
2023/05/04 09:24:16;;;;;;;4.43;1.08;;;;;;;43.88;3.25;100033.38;5056112;28;20143;-73
2023/05/04 09:27:21;;;;;;;3.53;1.00;;;;;;;45.10;2.63;100031.16;4990956;28;20135;-75
2023/05/04 09:30:08;;;;;;;6.72;1.10;;;;;;;44.33;3.22;100031.44;5029692;28;20061;-74
2023/05/04 09:32:54;;;;;;;5.45;0.98;;;;;;;45.08;2.47;100031.56;5016186;28;20140;-73
2023/05/04 09:35:30;;;;;;;2.85;1.10;;;;;;;44.60;3.43;100029.53;5001343;28;20494;-74
2023/05/04 09:37:57;;;;;;;6.50;1.50;;;;;;;45.49;2.88;100021.31;5016801;28;20045;-73
2023/05/04 09:40:35;;;;;;;2.85;1.20;;;;;;;46.64;2.51;100021.78;4961083;28;20058;-73
2023/05/04 09:43:01;;;;;;;2.85;1.30;;;;;;;45.61;2.51;100026.69;4976953;28;20054;-74
2023/05/04 09:45:43;;;;;;;1.88;0.80;;;;;;;46.10;2.03;100010.44;4961086;28;20195;-74
2023/05/04 09:48:24;;;;;;;4.65;1.20;;;;;;;46.28;2.17;100002.19;4960545;28;20048;-74
2023/05/04 09:50:54;;;;;;;8.10;1.20;;;;;;;45.27;2.20;100010.97;4976736;28;20046;-73
2023/05/04 09:53:24;;;;;;;1.15;0.90;;;;;;;45.10;2.65;100012.34;4976745;28;20046;-73
2023/05/04 09:56:09;;;;;;;2.97;1.00;;;;;;;42.89;2.99;100011.56;4992444;28;20140;-73
2023/05/04 09:58:36;;;;;;;2.08;1.00;;;;;;;41.62;3.47;99996.16;4995976;28;20137;-73
2023/05/04 10:01:03;;;;;;;6.57;1.20;;;;;;;42.74;3.42;99994.81;4979828;28;20069;-74
2023/05/04 10:03:30;;;;;;;6.20;1.17;;;;;;;44.26;2.61;100005.31;4941161;28;20062;-76
2023/05/04 10:06:03;;;;;;;2.50;1.42;;;;;;;46.02;2.37;99998.31;4940936;28;20058;-74
2023/05/04 10:08:30;;;;;;;5.18;1.10;;;;;;;45.46;2.59;99989.22;4925253;28;20057;-75
2023/05/04 10:10:56;;;;;;;2.00;1.10;;;;;;;45.60;2.12;99999.78;4957783;28;20374;-75
2023/05/04 10:13:26;;;;;;;4.78;1.33;;;;;;;44.50;2.75;99988.91;4952865;29;20450;-74
2023/05/04 10:16:11;;;;;;;3.78;1.00;;;;;;;46.18;2.71;99986.84;4937306;29;20086;-74
2023/05/04 10:19:01;;;;;;;3.97;1.33;;;;;;;46.99;1.62;99984.72;4972792;28;20128;-74
2023/05/04 10:22:04;;;;;;;5.30;1.15;;;;;;;46.46;1.80;99972.22;4963165;28;20131;-74
2023/05/04 10:24:31;;;;;;;3.92;1.30;;;;;;;46.72;1.63;99981.28;4995007;28;20064;-76
2023/05/04 10:27:04;;;;;;;10.50;1.23;;;;;;;47.86;1.53;99983.50;4995369;28;20500;-75
2023/05/04 10:29:32;;;;;;;7.05;0.98;;;;;;;48.14;1.48;99980.78;4975504;28;20177;-76
2023/05/04 10:31:58;;;;;;;1.38;0.80;;;;;;;47.37;1.50;99975.69;4943827;28;20452;-76
2023/05/04 10:34:26;;;;;;;4.30;1.10;;;;;;;47.51;1.56;99975.75;4933400;28;20053;-76
2023/05/04 10:36:52;;;;;;;2.00;1.02;;;;;;;47.70;1.44;99971.81;4975587;28;20050;-75
2023/05/04 10:39:23;;;;;;;4.22;0.90;;;;;;;47.97;1.40;99970.28;4975476;28;20473;-75
2023/05/04 10:42:03;;;;;;;4.22;1.02;;;;;;;47.63;1.47;99964.97;4959437;28;20054;-76
2023/05/04 10:44:31;;;;;;;5.55;1.00;;;;;;;45.03;1.66;99956.16;4984470;28;20055;-75
2023/05/04 10:47:05;;;;;;;1.52;0.88;;;;;;;43.90;2.19;99958.22;4995399;28;20061;-77
2023/05/04 10:49:33;;;;;;;1.80;0.90;;;;;;;43.40;2.37;99950.78;5011508;28;20053;-76
2023/05/04 10:52:08;;;;;;;2.45;0.77;;;;;;;42.66;2.96;99951.06;4995271;28;20080;-76
2023/05/04 10:54:36;;;;;;;2.70;1.08;;;;;;;42.93;2.45;99950.16;4994748;28;20056;-76
2023/05/04 10:57:05;;;;;;;1.83;0.63;;;;;;;43.65;2.66;99952.13;4987711;28;20077;-76
2023/05/04 10:59:32;;;;;;;1.90;0.80;;;;;;;43.79;2.61;99948.78;4994797;28;20545;-76
2023/05/04 11:02:00;;;;;;;2.67;0.70;;;;;;;42.85;2.33;99945.56;5010996;28;20060;-77
2023/05/04 11:04:29;;;;;;;3.65;0.80;;;;;;;41.70;2.98;99946.97;4985732;28;20470;-77
2023/05/04 11:07:00;;;;;;;3.00;1.20;;;;;;;40.44;3.47;99931.88;4949233;28;20474;-76
2023/05/04 11:09:34;;;;;;;1.15;0.80;;;;;;;40.10;3.64;99938.69;4914699;29;20056;-75
2023/05/04 11:12:03;;;;;;;0.88;0.60;;;;;;;39.01;3.95;99936.59;4914557;29;20083;-75
2023/05/04 11:14:29;;;;;;;1.27;0.80;;;;;;;37.83;4.08;99932.06;4936217;29;20110;-75
2023/05/04 11:17:10;;;;;;;3.40;0.90;;;;;;;36.57;4.86;99929.69;4919943;29;20078;-74
2023/05/04 11:19:51;;;;;;;3.72;0.88;;;;;;;35.61;5.14;99923.19;4935913;29;20057;-75
2023/05/04 11:22:17;;;;;;;;;;;;;;;34.92;5.67;99923.75;4905924;28;20055;-74
2023/05/04 11:24:48;;;;;;;1.25;0.82;;;;;;;33.69;5.90;99911.00;4911873;29;20014;-75
2023/05/04 11:27:24;;;;;;;1.25;0.88;;;;;;;33.42;6.47;99910.13;4876323;29;20567;-75
2023/05/04 11:30:02;;;;;;;1.80;1.00;;;;;;;33.20;6.59;99902.47;4844471;29;20062;-74
2023/05/04 11:32:37;;;;;;;;;;;;;;;32.84;6.67;99906.84;4858028;29;20156;-75
2023/05/04 11:35:06;;;;;;;3.60;0.90;;;;;;;31.37;7.57;99896.94;4871742;29;20021;-76